Time;durP1;ratioP1;P1;durP2;ratioP2;P2;SDS_P1;SDS_P2;PMS_P1;PMS_P2;Temp;Humidity;BMP_temperature;BMP_pressure;BME280_temperature;BME280_humidity;BME280_pressure;Samples;Min_cycle;Max_cycle;Signal;HPM_P1;HPM_P2
2023/09/13 00:01:54;;;;;;;14.88;9.52;;;;;;;;;;7361341;19;19999;-66
2023/09/13 00:04:20;;;;;;;13.25;9.48;;;;;;;;;;7385006;19;20021;-65
2023/09/13 00:06:45;;;;;;;14.18;10.32;;;;;;;;;;7362827;19;20365;-66
2023/09/13 00:09:11;;;;;;;16.17;9.55;;;;;;;;;;7365468;19;20010;-65
2023/09/13 00:11:36;;;;;;;14.65;10.07;;;;;;;;;;7364547;19;20007;-64
2023/09/13 00:14:02;;;;;;;15.60;9.60;;;;;;;;;;7365278;19;20008;-65
2023/09/13 00:16:27;;;;;;;16.73;10.15;;;;;;;;;;7387413;19;20007;-66
2023/09/13 00:18:53;;;;;;;13.82;9.82;;;;;;;;;;7365437;19;20014;-64
2023/09/13 00:21:18;;;;;;;16.45;10.45;;;;;;;;;;7364486;19;20498;-65
2023/09/13 00:23:44;;;;;;;16.50;10.55;;;;;;;;;;7362793;19;20488;-64
2023/09/13 00:26:09;;;;;;;14.10;10.07;;;;;;;;;;7366111;19;20029;-64
2023/09/13 00:28:34;;;;;;;15.25;10.27;;;;;;;;;;7386639;19;20007;-64
2023/09/13 00:31:00;;;;;;;14.27;9.77;;;;;;;;;;7364985;19;20014;-65
2023/09/13 00:33:25;;;;;;;14.80;9.77;;;;;;;;;;7361896;19;20025;-65
2023/09/13 00:35:56;;;;;;;12.85;9.48;;;;;;;;;;7367342;19;20045;-65
2023/09/13 00:38:22;;;;;;;13.48;9.20;;;;;;;;;;7372034;19;20093;-65
2023/09/13 00:40:47;;;;;;;12.63;9.82;;;;;;;;;;7371877;19;20139;-65
2023/09/13 00:43:12;;;;;;;13.50;9.23;;;;;;;;;;7390868;19;20013;-65
2023/09/13 00:45:38;;;;;;;14.52;8.77;;;;;;;;;;7371529;19;20007;-65
2023/09/13 00:48:04;;;;;;;14.27;9.60;;;;;;;;;;7371049;19;20090;-65
2023/09/13 00:50:30;;;;;;;12.75;9.15;;;;;;;;;;7371232;19;20528;-64
2023/09/13 00:52:56;;;;;;;12.10;9.00;;;;;;;;;;7369541;19;20475;-64
2023/09/13 00:55:24;;;;;;;12.68;8.95;;;;;;;;;;7393712;19;20680;-64
2023/09/13 00:57:50;;;;;;;15.40;8.57;;;;;;;;;;7371232;19;20799;-64
2023/09/13 01:00:17;;;;;;;15.73;9.07;;;;;;;;;;7371081;19;20250;-64
2023/09/13 01:02:44;;;;;;;12.27;8.32;;;;;;;;;;7369333;19;20073;-65
2023/09/13 01:05:12;;;;;;;12.50;8.48;;;;;;;;;;7371315;19;20464;-65
2023/09/13 01:07:40;;;;;;;11.30;7.85;;;;;;;;;;7393439;19;20013;-64
2023/09/13 01:10:06;;;;;;;12.10;7.97;;;;;;;;;;7371333;19;20002;-64
2023/09/13 01:12:32;;;;;;;12.50;7.38;;;;;;;;;;7368428;19;20018;-65
2023/09/13 01:14:57;;;;;;;9.85;7.32;;;;;;;;;;7370900;19;20393;-64
2023/09/13 01:17:34;;;;;;;11.98;7.80;;;;;;;;;;7371872;19;20006;-64
2023/09/13 01:20:17;;;;;;;11.10;8.35;;;;;;;;;;7369866;19;20480;-64
2023/09/13 01:23:15;;;;;;;10.95;8.13;;;;;;;;;;7369579;19;20025;-64
2023/09/13 01:25:49;;;;;;;10.80;7.18;;;;;;;;;;7393255;19;20074;-66
2023/09/13 01:28:34;;;;;;;11.45;6.63;;;;;;;;;;7371278;19;20089;-66
2023/09/13 01:31:03;;;;;;;9.18;5.90;;;;;;;;;;7369733;19;20014;-65
2023/09/13 01:33:29;;;;;;;9.13;5.30;;;;;;;;;;7370511;19;20016;-65
2023/09/13 01:35:54;;;;;;;10.13;4.93;;;;;;;;;;7370392;19;20014;-65
2023/09/13 01:38:19;;;;;;;7.25;5.38;;;;;;;;;;7370380;19;20026;-65
2023/09/13 01:40:48;;;;;;;8.90;5.35;;;;;;;;;;7369967;19;20015;-65
2023/09/13 01:43:14;;;;;;;6.72;4.78;;;;;;;;;;7389181;19;20011;-65
2023/09/13 01:45:40;;;;;;;8.50;5.10;;;;;;;;;;7368999;19;20038;-65
2023/09/13 01:48:08;;;;;;;6.75;4.47;;;;;;;;;;7368475;19;20139;-65
2023/09/13 01:50:34;;;;;;;7.55;4.85;;;;;;;;;;7367339;19;20049;-66
2023/09/13 01:53:03;;;;;;;9.75;4.65;;;;;;;;;;7365624;19;20460;-65
2023/09/13 01:55:28;;;;;;;7.50;4.30;;;;;;;;;;7388096;19;20009;-66
2023/09/13 01:57:53;;;;;;;8.30;4.00;;;;;;;;;;7367470;19;20022;-66
2023/09/13 02:00:19;;;;;;;7.63;4.43;;;;;;;;;;7367841;19;20014;-65
2023/09/13 02:02:44;;;;;;;8.05;4.53;;;;;;;;;;7366948;19;20006;-66
2023/09/13 02:05:10;;;;;;;7.20;4.22;;;;;;;;;;7369190;19;20043;-65
2023/09/13 02:07:35;;;;;;;6.45;4.10;;;;;;;;;;7390908;19;20070;-64
2023/09/13 02:10:00;;;;;;;7.25;3.83;;;;;;;;;;7369092;19;20010;-65
2023/09/13 02:12:25;;;;;;;6.68;4.00;;;;;;;;;;7366952;19;20018;-65
2023/09/13 02:14:51;;;;;;;9.10;4.32;;;;;;;;;;7367452;19;20017;-65
2023/09/13 02:17:16;;;;;;;7.68;4.18;;;;;;;;;;7368041;19;20007;-65
2023/09/13 02:19:42;;;;;;;5.95;3.88;;;;;;;;;;7386840;19;20024;-65
2023/09/13 02:22:07;;;;;;;6.80;4.15;;;;;;;;;;7373639;19;20023;-65
2023/09/13 02:24:33;;;;;;;7.07;3.67;;;;;;;;;;7368185;19;20035;-65
2023/09/13 02:26:59;;;;;;;7.00;3.70;;;;;;;;;;7367497;19;20522;-65
2023/09/13 02:29:25;;;;;;;8.38;3.60;;;;;;;;;;7368653;19;20011;-65
2023/09/13 02:31:51;;;;;;;5.53;3.65;;;;;;;;;;7368191;19;20059;-65
2023/09/13 02:34:16;;;;;;;6.15;3.92;;;;;;;;;;7389967;19;20677;-65
2023/09/13 02:36:41;;;;;;;7.55;3.85;;;;;;;;;;7367962;19;20010;-65
2023/09/13 02:39:29;;;;;;;6.43;3.58;;;;;;;;;;7367941;19;20078;-65
2023/09/13 02:41:55;;;;;;;6.55;3.90;;;;;;;;;;7366820;19;20015;-66
2023/09/13 02:44:20;;;;;;;7.32;3.85;;;;;;;;;;7368638;19;20054;-66
2023/09/13 02:46:45;;;;;;;6.65;3.80;;;;;;;;;;7368089;19;19998;-65
2023/09/13 02:49:11;;;;;;;5.82;3.33;;;;;;;;;;7389498;19;20007;-65
2023/09/13 02:51:36;;;;;;;6.15;3.60;;;;;;;;;;7366457;19;20080;-65
2023/09/13 02:54:01;;;;;;;6.85;3.88;;;;;;;;;;7367706;19;20010;-65
2023/09/13 02:56:26;;;;;;;6.75;3.80;;;;;;;;;;7367290;19;20006;-65
2023/09/13 02:58:52;;;;;;;7.45;4.20;;;;;;;;;;7364578;19;20009;-65
2023/09/13 03:01:17;;;;;;;7.28;3.97;;;;;;;;;;7387512;19;19995;-65
2023/09/13 03:03:42;;;;;;;8.15;4.20;;;;;;;;;;7365997;19;20007;-65
2023/09/13 03:06:18;;;;;;;6.97;4.10;;;;;;;;;;7366763;19;20019;-66
2023/09/13 03:08:43;;;;;;;9.23;3.85;;;;;;;;;;7366177;19;20002;-65
2023/09/13 03:11:17;;;;;;;8.13;3.92;;;;;;;;;;7365830;19;20019;-65
2023/09/13 03:13:43;;;;;;;6.35;4.07;;;;;;;;;;7379948;19;20030;-65
2023/09/13 03:16:18;;;;;;;7.32;4.22;;;;;;;;;;7386676;19;20005;-66
2023/09/13 03:18:45;;;;;;;7.72;3.92;;;;;;;;;;7366259;19;20028;-65
2023/09/13 03:21:11;;;;;;;8.10;4.22;;;;;;;;;;7368187;19;20018;-65
2023/09/13 03:23:38;;;;;;;8.25;4.40;;;;;;;;;;7367397;19;20010;-64
2023/09/13 03:26:16;;;;;;;8.23;4.18;;;;;;;;;;7367072;19;20130;-64
2023/09/13 03:28:44;;;;;;;7.78;4.28;;;;;;;;;;7389003;19;20006;-64
2023/09/13 03:31:11;;;;;;;6.70;3.97;;;;;;;;;;7366828;19;20461;-66
2023/09/13 03:33:36;;;;;;;6.30;4.38;;;;;;;;;;7364931;19;20729;-65
2023/09/13 03:36:02;;;;;;;10.25;4.35;;;;;;;;;;7365726;19;20066;-65
2023/09/13 03:38:27;;;;;;;6.88;4.22;;;;;;;;;;7364947;19;20065;-65
2023/09/13 03:40:52;;;;;;;6.45;3.92;;;;;;;;;;7365129;19;20013;-65
2023/09/13 03:43:18;;;;;;;6.25;3.80;;;;;;;;;;7384968;19;20042;-65
2023/09/13 03:45:43;;;;;;;6.18;3.83;;;;;;;;;;7365687;19;20476;-65
2023/09/13 03:48:08;;;;;;;6.22;3.90;;;;;;;;;;7365942;19;20017;-65
2023/09/13 03:50:34;;;;;;;7.88;4.03;;;;;;;;;;7364362;19;20027;-66
2023/09/13 03:52:59;;;;;;;7.45;3.80;;;;;;;;;;7363554;19;20492;-66
2023/09/13 03:55:25;;;;;;;9.05;4.15;;;;;;;;;;7386429;19;20002;-66
2023/09/13 03:57:50;;;;;;;12.75;5.05;;;;;;;;;;7365654;19;20524;-66
2023/09/13 04:00:15;;;;;;;8.07;4.13;;;;;;;;;;7364154;19;20018;-66
2023/09/13 04:02:41;;;;;;;6.82;4.18;;;;;;;;;;7360861;19;20015;-65
2023/09/13 04:05:06;;;;;;;7.50;4.10;;;;;;;;;;7361288;19;20434;-66
2023/09/13 04:07:31;;;;;;;7.43;4.20;;;;;;;;;;7385749;19;20011;-65
2023/09/13 04:09:57;;;;;;;7.43;4.25;;;;;;;;;;7365179;19;20103;-65
2023/09/13 04:12:22;;;;;;;5.93;3.95;;;;;;;;;;7369213;19;20063;-65
2023/09/13 04:14:47;;;;;;;9.25;3.88;;;;;;;;;;7371354;19;20006;-65
2023/09/13 04:17:13;;;;;;;8.50;4.75;;;;;;;;;;7370261;19;20457;-65
2023/09/13 04:19:38;;;;;;;10.50;3.92;;;;;;;;;;7393056;19;20066;-65
2023/09/13 04:22:03;;;;;;;6.68;4.53;;;;;;;;;;7369649;19;20546;-66
2023/09/13 04:24:29;;;;;;;6.55;4.07;;;;;;;;;;7368371;19;20503;-65
2023/09/13 04:26:54;;;;;;;7.35;3.80;;;;;;;;;;7371469;19;20013;-66
2023/09/13 04:29:19;;;;;;;6.82;4.28;;;;;;;;;;7370892;19;20011;-65
2023/09/13 04:31:45;;;;;;;6.88;3.92;;;;;;;;;;7369305;19;20010;-67
2023/09/13 04:34:10;;;;;;;7.38;3.65;;;;;;;;;;7392518;19;20036;-66
2023/09/13 04:36:36;;;;;;;7.28;3.92;;;;;;;;;;7370099;19;20085;-65
2023/09/13 04:39:02;;;;;;;8.15;4.20;;;;;;;;;;7371225;19;19998;-65
2023/09/13 04:41:27;;;;;;;7.28;4.15;;;;;;;;;;7366329;19;20026;-65
2023/09/13 04:43:52;;;;;;;5.90;3.83;;;;;;;;;;7370453;19;20002;-65
2023/09/13 04:46:18;;;;;;;8.23;4.05;;;;;;;;;;7390683;19;20015;-65
2023/09/13 04:48:43;;;;;;;6.70;4.07;;;;;;;;;;7367716;19;20005;-65
2023/09/13 04:51:10;;;;;;;9.35;4.45;;;;;;;;;;7368757;19;20013;-65
2023/09/13 04:53:36;;;;;;;7.55;4.45;;;;;;;;;;7368375;19;20013;-65
2023/09/13 04:56:01;;;;;;;6.75;4.50;;;;;;;;;;7371667;19;20612;-65
2023/09/13 04:58:27;;;;;;;7.28;4.38;;;;;;;;;;7392737;19;20002;-65
2023/09/13 05:00:52;;;;;;;7.70;4.13;;;;;;;;;;7369595;19;20010;-65
2023/09/13 05:03:18;;;;;;;6.93;4.03;;;;;;;;;;7369123;19;20367;-65
2023/09/13 05:05:43;;;;;;;7.65;4.65;;;;;;;;;;7370512;19;20010;-65
2023/09/13 05:08:08;;;;;;;8.57;4.78;;;;;;;;;;7369942;19;20002;-65
2023/09/13 05:10:34;;;;;;;6.82;4.40;;;;;;;;;;7392097;19;19999;-65
2023/09/13 05:13:00;;;;;;;7.55;4.43;;;;;;;;;;7367585;19;20022;-65
2023/09/13 05:15:25;;;;;;;6.93;4.75;;;;;;;;;;7358718;19;20010;-65
2023/09/13 05:17:50;;;;;;;10.77;4.43;;;;;;;;;;7369058;19;20109;-65
2023/09/13 05:20:16;;;;;;;9.18;4.88;;;;;;;;;;7371325;19;20026;-65
2023/09/13 05:22:42;;;;;;;7.78;4.60;;;;;;;;;;7388808;19;20890;-65
2023/09/13 05:25:07;;;;;;;7.00;4.43;;;;;;;;;;7369151;19;20011;-65
2023/09/13 05:27:32;;;;;;;7.70;4.53;;;;;;;;;;7365531;19;20038;-65
2023/09/13 05:29:58;;;;;;;10.20;4.07;;;;;;;;;;7369025;19;20022;-65
2023/09/13 05:32:23;;;;;;;6.97;4.18;;;;;;;;;;7366080;19;20006;-65
2023/09/13 05:34:48;;;;;;;6.97;4.53;;;;;;;;;;7368011;19;20002;-65
2023/09/13 05:37:14;;;;;;;6.45;4.30;;;;;;;;;;7387170;19;20010;-65
2023/09/13 05:39:40;;;;;;;7.03;4.25;;;;;;;;;;7360797;19;20082;-65
2023/09/13 05:42:05;;;;;;;9.75;4.00;;;;;;;;;;7365997;19;20010;-65
2023/09/13 05:44:33;;;;;;;5.28;3.70;;;;;;;;;;7368312;19;20517;-65
2023/09/13 05:46:58;;;;;;;7.90;4.20;;;;;;;;;;7369484;19;20081;-65
2023/09/13 05:49:24;;;;;;;5.15;3.40;;;;;;;;;;7390049;19;20023;-65
2023/09/13 05:51:50;;;;;;;5.38;3.47;;;;;;;;;;7365158;19;20002;-65
2023/09/13 05:54:15;;;;;;;5.20;3.40;;;;;;;;;;7368337;19;20044;-65
2023/09/13 05:56:41;;;;;;;8.00;4.15;;;;;;;;;;7368514;19;20352;-66
2023/09/13 05:59:07;;;;;;;5.72;3.85;;;;;;;;;;7368217;19;20044;-65
2023/09/13 06:01:33;;;;;;;6.82;3.85;;;;;;;;;;7388823;19;20354;-65
2023/09/13 06:03:58;;;;;;;8.23;3.88;;;;;;;;;;7368195;19;20040;-65
2023/09/13 06:06:23;;;;;;;7.32;3.85;;;;;;;;;;7368921;19;20010;-65
2023/09/13 06:08:48;;;;;;;7.18;4.22;;;;;;;;;;7368686;19;20516;-65
2023/09/13 06:11:16;;;;;;;7.65;3.92;;;;;;;;;;7367712;19;20024;-65
2023/09/13 06:13:41;;;;;;;6.85;3.47;;;;;;;;;;7389340;19;20010;-65
2023/09/13 06:16:07;;;;;;;7.07;3.85;;;;;;;;;;7342801;19;20010;-66
2023/09/13 06:18:32;;;;;;;7.60;4.38;;;;;;;;;;7368860;19;20440;-66
2023/09/13 06:20:57;;;;;;;7.95;3.90;;;;;;;;;;7369252;19;20006;-67
2023/09/13 06:23:33;;;;;;;5.97;3.70;;;;;;;;;;7366611;19;20051;-65
2023/09/13 06:25:59;;;;;;;7.22;4.05;;;;;;;;;;7389927;19;20127;-65
2023/09/13 06:28:24;;;;;;;7.28;4.40;;;;;;;;;;7368072;19;20470;-65
2023/09/13 06:30:49;;;;;;;8.10;4.55;;;;;;;;;;7366444;19;20023;-59
2023/09/13 06:33:15;;;;;;;7.03;4.15;;;;;;;;;;7366296;19;20011;-59
2023/09/13 06:35:40;;;;;;;7.35;4.70;;;;;;;;;;7367616;19;20011;-57
2023/09/13 06:38:05;;;;;;;5.55;3.70;;;;;;;;;;7390643;19;20423;-59
2023/09/13 06:40:33;;;;;;;7.07;4.50;;;;;;;;;;7373436;19;20017;-66
2023/09/13 06:42:58;;;;;;;8.02;4.45;;;;;;;;;;7365413;19;20018;-66
2023/09/13 06:45:24;;;;;;;6.53;3.97;;;;;;;;;;7365857;19;20010;-66
2023/09/13 06:47:49;;;;;;;6.10;3.97;;;;;;;;;;7365383;19;20021;-67
2023/09/13 06:50:14;;;;;;;8.52;3.80;;;;;;;;;;7365080;19;20006;-66
2023/09/13 06:52:40;;;;;;;9.45;4.30;;;;;;;;;;7382758;19;20006;-66
2023/09/13 06:55:05;;;;;;;6.70;3.70;;;;;;;;;;7364096;19;20044;-66
2023/09/13 06:57:31;;;;;;;5.68;3.92;;;;;;;;;;7366401;19;20014;-68
2023/09/13 06:59:56;;;;;;;6.38;4.05;;;;;;;;;;7366112;19;20014;-67
2023/09/13 07:02:21;;;;;;;7.13;4.45;;;;;;;;;;7365306;19;20062;-68
2023/09/13 07:04:47;;;;;;;7.93;3.92;;;;;;;;;;7388663;19;20036;-68
2023/09/13 07:07:12;;;;;;;8.48;5.45;;;;;;;;;;7366599;19;20017;-68
2023/09/13 07:09:38;;;;;;;6.20;4.00;;;;;;;;;;7368116;19;20030;-68
2023/09/13 07:12:03;;;;;;;8.63;4.35;;;;;;;;;;7364156;19;20021;-68
2023/09/13 07:14:29;;;;;;;7.75;3.97;;;;;;;;;;7365557;19;20729;-68
2023/09/13 07:16:54;;;;;;;7.65;4.15;;;;;;;;;;7387537;19;20007;-68
2023/09/13 07:19:19;;;;;;;7.15;3.78;;;;;;;;;;7364790;19;20397;-68
2023/09/13 07:21:46;;;;;;;5.60;3.58;;;;;;;;;;7364519;19;20010;-70
2023/09/13 07:24:12;;;;;;;5.65;3.95;;;;;;;;;;7364985;19;20485;-68
2023/09/13 07:26:37;;;;;;;5.85;3.72;;;;;;;;;;7366254;19;20006;-68
2023/09/13 07:29:03;;;;;;;7.07;3.92;;;;;;;;;;7388742;19;19998;-67
2023/09/13 07:31:28;;;;;;;6.03;4.10;;;;;;;;;;7364423;19;20006;-67
2023/09/13 07:33:53;;;;;;;6.57;3.80;;;;;;;;;;7366069;19;20405;-69
2023/09/13 07:36:22;;;;;;;8.02;4.10;;;;;;;;;;7366290;19;20006;-68
2023/09/13 07:38:48;;;;;;;6.75;3.83;;;;;;;;;;7366172;19;20002;-68
2023/09/13 07:41:13;;;;;;;8.20;4.13;;;;;;;;;;7365841;19;20480;-68
2023/09/13 07:43:38;;;;;;;8.23;4.28;;;;;;;;;;7386499;19;20003;-68
2023/09/13 07:46:04;;;;;;;7.45;4.50;;;;;;;;;;7369573;19;20017;-68
2023/09/13 07:48:29;;;;;;;6.53;4.32;;;;;;;;;;7374192;19;20667;-68
2023/09/13 07:50:54;;;;;;;8.70;4.65;;;;;;;;;;7372947;19;20002;-68
2023/09/13 07:53:20;;;;;;;9.15;5.03;;;;;;;;;;7371115;19;19998;-68
2023/09/13 07:55:45;;;;;;;6.65;4.43;;;;;;;;;;7395695;19;19994;-68
2023/09/13 07:58:10;;;;;;;6.85;4.43;;;;;;;;;;7373176;19;20006;-68
2023/09/13 08:00:36;;;;;;;9.80;4.85;;;;;;;;;;7372179;19;20014;-68
2023/09/13 08:03:02;;;;;;;6.82;4.68;;;;;;;;;;7371891;19;20006;-68
2023/09/13 08:05:28;;;;;;;7.13;4.38;;;;;;;;;;7373892;19;20011;-68
2023/09/13 08:07:54;;;;;;;7.65;4.60;;;;;;;;;;7396256;19;20003;-68
2023/09/13 08:10:24;;;;;;;9.70;4.80;;;;;;;;;;7375956;19;20062;-68
2023/09/13 08:12:49;;;;;;;9.45;4.82;;;;;;;;;;7370979;19;20006;-67
2023/09/13 08:15:15;;;;;;;8.48;5.15;;;;;;;;;;7372557;19;20017;-68
2023/09/13 08:17:41;;;;;;;8.00;4.30;;;;;;;;;;7373412;19;20460;-67
2023/09/13 08:20:10;;;;;;;8.25;5.00;;;;;;;;;;7395038;19;20010;-68
2023/09/13 08:22:36;;;;;;;10.63;4.80;;;;;;;;;;7370639;19;20002;-68
2023/09/13 08:25:01;;;;;;;8.77;4.32;;;;;;;;;;7371561;19;19994;-69
2023/09/13 08:27:26;;;;;;;8.05;4.32;;;;;;;;;;7370299;19;20389;-68
2023/09/13 08:29:53;;;;;;;6.97;4.55;;;;;;;;;;7371598;19;20066;-68
2023/09/13 08:32:19;;;;;;;6.38;4.10;;;;;;;;;;7370026;19;20017;-68
2023/09/13 08:34:44;;;;;;;6.75;3.90;;;;;;;;;;7393999;19;19994;-68
2023/09/13 08:37:09;;;;;;;7.20;3.85;;;;;;;;;;7370609;19;20019;-68
2023/09/13 08:39:35;;;;;;;7.63;4.00;;;;;;;;;;7372214;19;20014;-68
2023/09/13 08:42:00;;;;;;;6.10;3.75;;;;;;;;;;7368908;19;20022;-68
2023/09/13 08:44:27;;;;;;;6.95;4.20;;;;;;;;;;7371892;19;20632;-68
2023/09/13 08:46:57;;;;;;;7.80;4.20;;;;;;;;;;7391255;19;20011;-68
2023/09/13 08:49:23;;;;;;;6.70;4.28;;;;;;;;;;7371580;19;20513;-68
2023/09/13 08:51:51;;;;;;;6.95;3.97;;;;;;;;;;7369790;19;20041;-68
2023/09/13 08:54:17;;;;;;;7.05;3.95;;;;;;;;;;7370622;19;20008;-69
2023/09/13 08:56:45;;;;;;;6.75;4.10;;;;;;;;;;7368951;19;20468;-69
2023/09/13 08:59:12;;;;;;;7.88;4.00;;;;;;;;;;7373054;19;20485;-69
2023/09/13 09:01:38;;;;;;;7.28;3.50;;;;;;;;;;7389754;19;20007;-69
2023/09/13 09:04:03;;;;;;;8.07;4.10;;;;;;;;;;7370406;19;20360;-69
2023/09/13 09:06:32;;;;;;;7.25;4.15;;;;;;;;;;7369330;19;20010;-69
2023/09/13 09:08:58;;;;;;;7.10;4.13;;;;;;;;;;7370769;19;20015;-69
2023/09/13 09:11:26;;;;;;;7.10;4.30;;;;;;;;;;7369820;19;20006;-69
2023/09/13 09:13:57;;;;;;;6.15;3.97;;;;;;;;;;7392811;19;20124;-69
2023/09/13 09:16:27;;;;;;;7.38;3.47;;;;;;;;;;7369718;19;20002;-69
2023/09/13 09:18:54;;;;;;;7.93;4.13;;;;;;;;;;7370235;19;20010;-69
2023/09/13 09:21:20;;;;;;;7.57;3.67;;;;;;;;;;7370463;19;20547;-69
2023/09/13 09:23:45;;;;;;;5.18;3.40;;;;;;;;;;7368587;19;20006;-69
2023/09/13 09:26:11;;;;;;;5.40;3.25;;;;;;;;;;7375132;19;20387;-69
2023/09/13 09:28:36;;;;;;;6.20;3.10;;;;;;;;;;7392015;19;20002;-69
2023/09/13 09:31:02;;;;;;;5.27;3.10;;;;;;;;;;7370975;19;20053;-69
2023/09/13 09:33:29;;;;;;;4.22;2.85;;;;;;;;;;7369381;19;20604;-70
2023/09/13 09:35:56;;;;;;;5.45;2.85;;;;;;;;;;7371116;19;20365;-68
2023/09/13 09:38:24;;;;;;;5.88;3.00;;;;;;;;;;7369667;19;20400;-68
2023/09/13 09:40:52;;;;;;;5.35;2.90;;;;;;;;;;7392556;19;20079;-68
2023/09/13 09:43:18;;;;;;;4.90;2.92;;;;;;;;;;7368011;19;20013;-68
2023/09/13 09:45:43;;;;;;;5.63;3.17;;;;;;;;;;7370261;19;20499;-67
2023/09/13 09:48:10;;;;;;;4.53;2.50;;;;;;;;;;7370462;19;20055;-67
2023/09/13 09:50:37;;;;;;;5.85;2.97;;;;;;;;;;7369488;19;20014;-67
2023/09/13 09:53:10;;;;;;;4.03;2.53;;;;;;;;;;7389502;19;20367;-68
2023/09/13 09:55:36;;;;;;;4.43;2.65;;;;;;;;;;7369869;19;20018;-69
2023/09/13 09:58:02;;;;;;;5.43;2.53;;;;;;;;;;7369874;19;20003;-68
2023/09/13 10:00:28;;;;;;;5.72;2.70;;;;;;;;;;7370534;19;20095;-67
2023/09/13 10:02:53;;;;;;;3.03;2.33;;;;;;;;;;7368602;19;20010;-69
2023/09/13 10:05:20;;;;;;;3.55;2.30;;;;;;;;;;7369084;19;20380;-67
2023/09/13 10:07:54;;;;;;;3.50;2.40;;;;;;;;;;7389577;19;20036;-68
2023/09/13 10:10:30;;;;;;;3.90;2.22;;;;;;;;;;7368566;19;20006;-67
2023/09/13 10:12:56;;;;;;;4.15;2.10;;;;;;;;;;7366920;19;20006;-68
2023/09/13 10:15:21;;;;;;;3.60;2.47;;;;;;;;;;7368892;19;20040;-68
2023/09/13 10:17:48;;;;;;;2.97;2.20;;;;;;;;;;7368837;19;20023;-68
2023/09/13 10:20:17;;;;;;;4.00;2.40;;;;;;;;;;7367909;19;20074;-67
2023/09/13 10:22:45;;;;;;;3.15;2.22;;;;;;;;;;7388260;19;20006;-68
2023/09/13 10:25:12;;;;;;;4.60;2.50;;;;;;;;;;7368771;19;20031;-68
2023/09/13 10:27:40;;;;;;;4.85;2.13;;;;;;;;;;7369397;19;20007;-68
2023/09/13 10:30:07;;;;;;;3.40;2.22;;;;;;;;;;7368062;19;20073;-68
2023/09/13 10:32:42;;;;;;;4.32;2.40;;;;;;;;;;7366595;19;20015;-68
2023/09/13 10:35:11;;;;;;;6.15;2.40;;;;;;;;;;7391082;19;20353;-68
2023/09/13 10:37:50;;;;;;;5.00;2.65;;;;;;;;;;7367887;19;20020;-68
2023/09/13 10:40:22;;;;;;;4.55;2.67;;;;;;;;;;7367490;19;20003;-68
2023/09/13 10:42:49;;;;;;;3.70;2.20;;;;;;;;;;7365538;19;20093;-68
2023/09/13 10:45:18;;;;;;;4.82;2.35;;;;;;;;;;7367030;19;20015;-68
2023/09/13 10:47:46;;;;;;;5.97;2.90;;;;;;;;;;7368890;19;20314;-68
2023/09/13 10:50:14;;;;;;;3.80;2.30;;;;;;;;;;7367845;19;20544;-68
2023/09/13 10:52:40;;;;;;;3.55;2.35;;;;;;;;;;7387532;19;19998;-68
2023/09/13 10:55:06;;;;;;;5.28;2.47;;;;;;;;;;7367795;19;20118;-68
2023/09/13 10:57:32;;;;;;;4.43;2.17;;;;;;;;;;7367487;19;20010;-68
2023/09/13 10:59:59;;;;;;;5.00;2.30;;;;;;;;;;7367969;19;20010;-67
2023/09/13 11:02:25;;;;;;;4.70;2.47;;;;;;;;;;7366408;19;20010;-68
2023/09/13 11:04:50;;;;;;;4.55;2.60;;;;;;;;;;7388958;19;20581;-67
2023/09/13 11:07:16;;;;;;;4.53;2.80;;;;;;;;;;7366509;19;20003;-67
2023/09/13 11:09:42;;;;;;;8.30;3.30;;;;;;;;;;7367543;19;19994;-67
2023/09/13 11:12:12;;;;;;;5.03;2.97;;;;;;;;;;7365325;19;20010;-67
2023/09/13 11:14:37;;;;;;;6.73;3.00;;;;;;;;;;7367338;19;20010;-68
2023/09/13 11:17:33;;;;;;;5.60;3.08;;;;;;;;;;7388725;19;20007;-68
2023/09/13 11:20:21;;;;;;;5.60;3.05;;;;;;;;;;7363560;19;20401;-68
2023/09/13 11:23:00;;;;;;;5.25;3.05;;;;;;;;;;7362669;19;20006;-67
2023/09/13 11:25:30;;;;;;;6.40;3.13;;;;;;;;;;7364453;19;20465;-67
2023/09/13 11:27:56;;;;;;;4.72;2.80;;;;;;;;;;7364208;19;20006;-66
2023/09/13 11:30:48;;;;;;;7.25;3.08;;;;;;;;;;7365823;19;20040;-67
2023/09/13 11:33:14;;;;;;;5.18;2.90;;;;;;;;;;7364624;19;20017;-67
2023/09/13 11:35:40;;;;;;;6.43;3.08;;;;;;;;;;7367296;19;20007;-67
2023/09/13 11:38:07;;;;;;;4.82;2.45;;;;;;;;;;7389130;19;20012;-67
2023/09/13 11:40:32;;;;;;;4.85;2.70;;;;;;;;;;7355082;19;20352;-67
2023/09/13 11:42:59;;;;;;;4.72;2.90;;;;;;;;;;7363790;19;20075;-68
2023/09/13 11:45:29;;;;;;;4.65;2.42;;;;;;;;;;7366909;19;20010;-68
2023/09/13 11:47:55;;;;;;;4.85;2.80;;;;;;;;;;7366914;19;20007;-68
2023/09/13 11:50:20;;;;;;;4.38;2.50;;;;;;;;;;7366113;19;20023;-68
2023/09/13 11:53:09;;;;;;;6.07;2.97;;;;;;;;;;7385611;19;19998;-68
2023/09/13 11:55:42;;;;;;;6.25;2.80;;;;;;;;;;7365684;19;20006;-68
2023/09/13 11:58:17;;;;;;;5.30;2.72;;;;;;;;;;7365003;19;20631;-67
2023/09/13 12:00:43;;;;;;;5.78;3.10;;;;;;;;;;7363960;19;20010;-68
2023/09/13 12:03:08;;;;;;;4.95;2.85;;;;;;;;;;7364842;19;20006;-68
2023/09/13 12:05:36;;;;;;;6.90;2.60;;;;;;;;;;7365458;19;20030;-68
2023/09/13 12:08:02;;;;;;;6.22;2.60;;;;;;;;;;7385882;19;20113;-68
2023/09/13 12:10:35;;;;;;;4.82;2.53;;;;;;;;;;7364949;19;20027;-68
2023/09/13 12:13:01;;;;;;;4.30;2.50;;;;;;;;;;7363585;19;20457;-70
2023/09/13 12:15:27;;;;;;;4.45;2.70;;;;;;;;;;7364829;19;20021;-68
2023/09/13 12:18:01;;;;;;;6.10;2.60;;;;;;;;;;7364023;19;20472;-68
2023/09/13 12:20:30;;;;;;;5.28;2.45;;;;;;;;;;7364231;19;20006;-68
2023/09/13 12:22:56;;;;;;;3.80;2.50;;;;;;;;;;7383948;19;20002;-68
2023/09/13 12:25:21;;;;;;;3.58;2.40;;;;;;;;;;7363910;19;20013;-67
2023/09/13 12:27:47;;;;;;;4.55;2.50;;;;;;;;;;7362529;19;20006;-67
2023/09/13 12:30:18;;;;;;;5.38;3.10;;;;;;;;;;7365844;19;20476;-68
2023/09/13 12:32:45;;;;;;;4.18;2.63;;;;;;;;;;7368898;19;19999;-68
2023/09/13 12:35:11;;;;;;;5.10;2.50;;;;;;;;;;7381680;19;20010;-68
2023/09/13 12:37:37;;;;;;;3.75;2.60;;;;;;;;;;7393993;19;20002;-68
2023/09/13 12:40:14;;;;;;;4.82;2.60;;;;;;;;;;7372072;19;20375;-68
2023/09/13 12:42:40;;;;;;;3.55;2.53;;;;;;;;;;7370300;19;20006;-68
2023/09/13 12:45:06;;;;;;;4.00;2.50;;;;;;;;;;7372360;19;20006;-68
2023/09/13 12:47:32;;;;;;;4.30;2.55;;;;;;;;;;7372530;19;20365;-68
2023/09/13 12:49:58;;;;;;;5.22;2.70;;;;;;;;;;7393902;19;20002;-68
2023/09/13 12:52:25;;;;;;;5.43;2.58;;;;;;;;;;7370049;19;20006;-68
2023/09/13 12:54:51;;;;;;;3.85;2.38;;;;;;;;;;7371898;19;20023;-68
2023/09/13 12:57:16;;;;;;;3.97;2.30;;;;;;;;;;7371474;19;20599;-68
2023/09/13 12:59:43;;;;;;;6.05;2.47;;;;;;;;;;7371941;19;20043;-68
2023/09/13 13:02:16;;;;;;;4.30;2.40;;;;;;;;;;7390507;19;20011;-68
2023/09/13 13:04:42;;;;;;;4.30;2.40;;;;;;;;;;7371019;19;20062;-69
2023/09/13 13:07:07;;;;;;;3.22;2.10;;;;;;;;;;7369581;19;20465;-68
2023/09/13 13:09:33;;;;;;;3.53;2.10;;;;;;;;;;7376640;19;20052;-68
2023/09/13 13:11:59;;;;;;;4.90;2.55;;;;;;;;;;7369175;19;20025;-68
2023/09/13 13:14:26;;;;;;;4.43;2.47;;;;;;;;;;7370657;19;20004;-68
2023/09/13 13:16:53;;;;;;;6.55;2.40;;;;;;;;;;7392430;19;20031;-68
2023/09/13 13:19:39;;;;;;;2.70;1.85;;;;;;;;;;7370117;19;20010;-68
2023/09/13 13:22:07;;;;;;;3.65;2.20;;;;;;;;;;7369241;19;20103;-68
2023/09/13 13:24:32;;;;;;;3.78;2.30;;;;;;;;;;7369432;19;20014;-68
2023/09/13 13:26:57;;;;;;;3.70;2.30;;;;;;;;;;7368875;19;20562;-68
2023/09/13 13:29:22;;;;;;;3.65;2.30;;;;;;;;;;7369802;19;20240;-67
2023/09/13 13:31:48;;;;;;;4.80;2.40;;;;;;;;;;7390353;19;19994;-67
2023/09/13 13:34:13;;;;;;;3.83;2.20;;;;;;;;;;7369072;19;20025;-67
2023/09/13 13:36:40;;;;;;;4.00;1.98;;;;;;;;;;7369715;19;20108;-67
2023/09/13 13:39:06;;;;;;;3.72;2.30;;;;;;;;;;7369916;19;20023;-67
2023/09/13 13:41:32;;;;;;;4.13;2.05;;;;;;;;;;7369036;19;20063;-69
2023/09/13 13:43:59;;;;;;;3.67;2.03;;;;;;;;;;7390195;19;20333;-68
2023/09/13 13:46:25;;;;;;;2.67;2.03;;;;;;;;;;7368829;19;20043;-68
2023/09/13 13:48:51;;;;;;;3.50;2.30;;;;;;;;;;7369590;19;20003;-67
2023/09/13 13:51:18;;;;;;;4.20;2.30;;;;;;;;;;7369499;19;20471;-67
2023/09/13 13:53:43;;;;;;;2.70;2.13;;;;;;;;;;7368206;19;20080;-67
2023/09/13 13:56:09;;;;;;;3.22;2.00;;;;;;;;;;7390999;19;20003;-68
2023/09/13 13:58:34;;;;;;;5.00;2.10;;;;;;;;;;7369451;19;20021;-68
2023/09/13 14:01:03;;;;;;;3.57;2.13;;;;;;;;;;7368545;19;20006;-68
2023/09/13 14:03:28;;;;;;;3.25;2.03;;;;;;;;;;7367456;19;20792;-67
2023/09/13 14:05:53;;;;;;;3.35;2.00;;;;;;;;;;7368975;19;20026;-67
2023/09/13 14:08:23;;;;;;;4.15;2.05;;;;;;;;;;7368521;19;20010;-68
2023/09/13 14:10:50;;;;;;;4.55;2.30;;;;;;;;;;7390096;19;20013;-68
2023/09/13 14:13:17;;;;;;;4.03;2.10;;;;;;;;;;7362669;19;20021;-68
2023/09/13 14:15:43;;;;;;;3.17;1.90;;;;;;;;;;7369868;19;20011;-68
2023/09/13 14:18:08;;;;;;;3.47;2.20;;;;;;;;;;7369200;19;20022;-68
2023/09/13 14:20:35;;;;;;;3.20;1.92;;;;;;;;;;7369801;19;20620;-67
2023/09/13 14:23:00;;;;;;;3.25;2.03;;;;;;;;;;7388590;19;20002;-67
2023/09/13 14:25:26;;;;;;;3.05;2.10;;;;;;;;;;7368700;19;20010;-67
2023/09/13 14:27:52;;;;;;;4.28;2.10;;;;;;;;;;7368413;19;20029;-67
2023/09/13 14:30:19;;;;;;;3.80;2.15;;;;;;;;;;7368474;19;20078;-67
2023/09/13 14:32:47;;;;;;;3.15;2.25;;;;;;;;;;7366757;19;20018;-67
2023/09/13 14:35:13;;;;;;;3.75;2.05;;;;;;;;;;7367005;19;20098;-67
2023/09/13 14:37:39;;;;;;;4.53;2.20;;;;;;;;;;7389634;19;20489;-67
2023/09/13 14:40:05;;;;;;;3.75;2.13;;;;;;;;;;7367181;19;20082;-68